Time;durP1;ratioP1;P1;durP2;ratioP2;P2;SDS_P1;SDS_P2;PMS_P1;PMS_P2;Temp;Humidity;BMP_temperature;BMP_pressure;BME280_temperature;BME280_humidity;BME280_pressure;Samples;Min_cycle;Max_cycle;Signal;HPM_P1;HPM_P2
2023/06/30 00:00:12;;;;;;;13.73;8.65;;;;;;;18.63;61.65;95330.84;5129153;27;20027;-77
2023/06/30 00:02:39;;;;;;;9.98;8.02;;;;;;;17.87;61.42;95220.59;5129437;27;20479;-77
2023/06/30 00:05:05;;;;;;;12.85;7.70;;;;;;;18.64;61.07;95343.94;5128055;27;20030;-77
2023/06/30 00:07:32;;;;;;;11.95;7.80;;;;;;;18.41;61.02;95319.19;5127264;27;20114;-77
2023/06/30 00:09:57;;;;;;;12.73;7.82;;;;;;;18.30;61.16;95312.56;5127486;27;20031;-78
2023/06/30 00:12:23;;;;;;;12.75;7.82;;;;;;;18.26;61.26;95333.09;5127053;27;20560;-78
2023/06/30 00:14:48;;;;;;;11.13;8.13;;;;;;;18.09;61.87;95307.06;5123735;27;20479;-77
2023/06/30 00:17:16;;;;;;;12.48;8.13;;;;;;;18.03;61.80;95288.75;5131888;27;20492;-78
2023/06/30 00:19:41;;;;;;;13.30;8.05;;;;;;;18.15;62.07;95312.28;5133440;27;20085;-77
2023/06/30 00:22:07;;;;;;;12.02;7.82;;;;;;;18.17;62.44;95321.56;5125544;27;20063;-78
2023/06/30 00:24:33;;;;;;;12.20;8.23;;;;;;;18.34;62.70;95352.97;5133478;27;20035;-78
2023/06/30 00:27:00;;;;;;;13.02;7.35;;;;;;;18.33;63.05;95349.50;5123743;27;20042;-78
2023/06/30 00:29:25;;;;;;;11.98;8.25;;;;;;;18.34;63.08;95350.31;5118218;27;20027;-78
2023/06/30 00:31:50;;;;;;;16.70;8.85;;;;;;;18.27;63.29;95339.25;5133640;27;20035;-77
2023/06/30 00:34:16;;;;;;;16.77;8.73;;;;;;;18.23;62.97;95324.91;5119771;27;20077;-78
2023/06/30 00:36:41;;;;;;;13.15;8.40;;;;;;;18.24;62.99;95326.47;5115285;27;20466;-77
2023/06/30 00:39:07;;;;;;;13.23;9.02;;;;;;;18.32;63.52;95347.13;5132771;27;20027;-78
2023/06/30 00:41:32;;;;;;;18.30;9.00;;;;;;;18.22;63.66;95347.47;5122443;27;20535;-78
2023/06/30 00:43:59;;;;;;;12.65;8.35;;;;;;;17.99;63.82;95311.97;5114305;27;20496;-77
2023/06/30 00:46:26;;;;;;;14.73;8.18;;;;;;;17.94;64.01;95312.91;5114679;27;20417;-77
2023/06/30 00:48:52;;;;;;;14.95;8.18;;;;;;;18.12;64.00;95344.00;5124415;27;20394;-77
2023/06/30 00:51:19;;;;;;;14.73;9.18;;;;;;;17.97;63.67;95322.22;5132991;27;20041;-78
2023/06/30 00:53:45;;;;;;;15.18;7.75;;;;;;;18.08;64.04;95351.09;5132899;27;20031;-77
2023/06/30 00:56:12;;;;;;;12.93;7.70;;;;;;;17.94;64.05;95322.84;5132767;27;20034;-77
2023/06/30 00:58:37;;;;;;;12.50;7.60;;;;;;;17.34;64.07;95233.19;5132639;27;20069;-77
2023/06/30 01:01:22;;;;;;;13.43;8.43;;;;;;;18.07;64.53;95346.88;5122495;27;20059;-78
2023/06/30 01:04:31;;;;;;;13.90;8.30;;;;;;;17.95;64.32;95337.84;5118514;27;20027;-77
2023/06/30 01:07:17;;;;;;;13.68;8.07;;;;;;;18.01;64.44;95355.38;5096344;27;20122;-78
2023/06/30 01:09:57;;;;;;;14.15;8.40;;;;;;;18.00;64.40;95351.13;5133310;27;20034;-77
2023/06/30 01:12:23;;;;;;;12.38;7.90;;;;;;;17.79;64.46;95328.69;5133338;27;20129;-77
2023/06/30 01:14:50;;;;;;;15.45;8.77;;;;;;;18.00;64.44;95359.19;5120858;27;20047;-77
2023/06/30 01:17:19;;;;;;;11.93;8.80;;;;;;;18.01;64.53;95347.31;5117933;27;20042;-77
2023/06/30 01:19:48;;;;;;;12.43;7.97;;;;;;;17.90;64.37;95338.81;5132432;27;20815;-78
2023/06/30 01:22:40;;;;;;;11.20;7.93;;;;;;;18.00;64.66;95337.72;5132585;27;20027;-77
2023/06/30 01:25:20;;;;;;;11.82;7.38;;;;;;;17.99;64.65;95339.59;5114371;27;20354;-77
2023/06/30 01:27:46;;;;;;;15.90;8.50;;;;;;;17.67;64.63;95284.53;5132005;27;20035;-77
2023/06/30 01:30:13;;;;;;;15.65;7.97;;;;;;;17.93;64.70;95340.84;5132275;27;20084;-77
2023/06/30 01:32:40;;;;;;;14.02;8.13;;;;;;;17.90;64.66;95319.22;5123603;27;20023;-77
2023/06/30 01:35:05;;;;;;;15.73;8.80;;;;;;;17.73;64.84;95299.34;5121873;27;20035;-78
2023/06/30 01:37:31;;;;;;;15.40;9.10;;;;;;;17.69;64.69;95298.41;5113991;27;20111;-77
2023/06/30 01:39:56;;;;;;;14.10;8.23;;;;;;;17.87;64.66;95330.59;5131519;27;20107;-77
2023/06/30 01:42:22;;;;;;;11.73;7.75;;;;;;;17.82;64.47;95323.50;5132242;27;20119;-77
2023/06/30 01:44:49;;;;;;;11.48;8.00;;;;;;;17.64;64.54;95301.22;5141944;27;20046;-77
2023/06/30 01:47:15;;;;;;;16.35;8.05;;;;;;;17.27;64.74;95246.28;5112627;27;20083;-77
2023/06/30 01:49:42;;;;;;;13.90;8.20;;;;;;;17.36;64.94;95270.41;5120703;27;20449;-77
2023/06/30 01:52:08;;;;;;;13.88;8.18;;;;;;;16.93;64.74;95198.81;5131522;27;20049;-77
2023/06/30 01:54:36;;;;;;;13.50;7.97;;;;;;;17.55;64.85;95302.28;5113615;27;20477;-79
2023/06/30 01:57:02;;;;;;;10.48;7.60;;;;;;;17.14;64.87;95235.72;5108930;28;20115;-80
2023/06/30 01:59:27;;;;;;;13.43;8.10;;;;;;;17.47;64.87;95301.16;5127647;27;20549;-80
2023/06/30 02:01:53;;;;;;;14.57;8.27;;;;;;;17.18;64.83;95263.44;5111401;27;20039;-80
2023/06/30 02:04:18;;;;;;;12.10;7.72;;;;;;;17.48;64.99;95304.66;5131144;27;20735;-80
2023/06/30 02:06:44;;;;;;;12.88;7.35;;;;;;;17.50;65.14;95303.25;5120450;27;20513;-80
2023/06/30 02:09:09;;;;;;;11.68;8.10;;;;;;;17.46;65.31;95304.19;5112135;27;20046;-80
2023/06/30 02:11:35;;;;;;;17.85;8.38;;;;;;;17.55;65.43;95324.53;5119000;27;20019;-80
2023/06/30 02:14:00;;;;;;;11.45;7.25;;;;;;;17.38;65.34;95295.03;5131490;27;20441;-80
2023/06/30 02:16:25;;;;;;;11.68;7.88;;;;;;;17.43;65.22;95318.22;5142730;27;20031;-79
2023/06/30 02:18:54;;;;;;;13.82;8.00;;;;;;;17.33;65.31;95293.28;5142227;27;20042;-80
2023/06/30 02:21:20;;;;;;;12.88;7.75;;;;;;;17.11;65.81;95284.56;5140138;27;20086;-79
2023/06/30 02:23:45;;;;;;;10.73;7.55;;;;;;;17.09;65.86;95297.50;5136549;27;20113;-80
2023/06/30 02:26:11;;;;;;;17.23;7.60;;;;;;;17.13;65.88;95306.47;5140654;27;20039;-80
2023/06/30 02:28:36;;;;;;;12.13;7.43;;;;;;;17.11;65.68;95303.31;5139677;27;20054;-80
2023/06/30 02:31:02;;;;;;;13.23;7.97;;;;;;;16.97;65.95;95280.13;5139262;27;20473;-80
2023/06/30 02:33:28;;;;;;;13.82;7.40;;;;;;;16.93;66.08;95281.06;5125874;27;20041;-80
2023/06/30 02:35:53;;;;;;;10.32;7.88;;;;;;;17.01;66.42;95296.38;5117436;28;20031;-79
2023/06/30 02:38:19;;;;;;;14.90;8.02;;;;;;;16.95;66.20;95297.59;5121437;28;20038;-80
2023/06/30 02:40:45;;;;;;;12.02;8.30;;;;;;;17.01;65.88;95300.94;5120375;28;20027;-80
2023/06/30 02:43:10;;;;;;;16.88;8.38;;;;;;;17.14;66.12;95314.22;5119914;28;20618;-80
2023/06/30 02:45:35;;;;;;;9.52;7.90;;;;;;;17.13;66.34;95326.03;5112193;27;20067;-80
2023/06/30 02:48:01;;;;;;;16.15;8.18;;;;;;;16.78;66.75;95287.59;5136909;27;20023;-79
2023/06/30 02:50:31;;;;;;;15.45;7.88;;;;;;;16.87;66.88;95309.06;5124080;28;20588;-80
2023/06/30 02:53:00;;;;;;;14.23;8.73;;;;;;;17.14;66.29;95332.19;5142780;27;20030;-80
2023/06/30 02:55:26;;;;;;;10.32;8.30;;;;;;;17.03;66.45;95312.09;5144205;27;20370;-80
2023/06/30 02:57:51;;;;;;;14.65;8.52;;;;;;;16.90;66.73;95292.38;5118990;27;20031;-79
2023/06/30 03:00:17;;;;;;;18.65;8.80;;;;;;;16.90;66.41;95290.50;5119206;27;20044;-80
2023/06/30 03:02:43;;;;;;;14.35;7.63;;;;;;;17.11;66.44;95325.53;5137548;27;20035;-79
2023/06/30 03:05:09;;;;;;;11.00;8.13;;;;;;;17.10;66.59;95315.13;5138878;27;20031;-80
2023/06/30 03:07:35;;;;;;;17.90;8.60;;;;;;;16.85;66.88;95287.16;5138990;27;20393;-79
2023/06/30 03:10:00;;;;;;;17.30;8.68;;;;;;;16.78;66.78;95276.13;5120129;28;20019;-80
2023/06/30 03:12:26;;;;;;;15.05;8.18;;;;;;;16.83;67.22;95298.19;5139141;27;20553;-80
2023/06/30 03:14:51;;;;;;;15.45;8.32;;;;;;;16.87;66.76;95312.53;5118025;28;20517;-80
2023/06/30 03:17:16;;;;;;;18.80;9.00;;;;;;;16.87;66.89;95293.78;5130214;28;20167;-79
2023/06/30 03:19:42;;;;;;;18.40;8.15;;;;;;;16.76;66.99;95284.47;5121219;28;20038;-80
2023/06/30 03:22:08;;;;;;;18.92;9.27;;;;;;;16.82;66.98;95309.19;5130035;27;20023;-80
2023/06/30 03:24:34;;;;;;;16.90;9.13;;;;;;;16.87;66.75;95309.84;5133804;27;20023;-80
2023/06/30 03:27:00;;;;;;;11.38;7.78;;;;;;;17.05;66.68;95316.06;5134317;27;20079;-80
2023/06/30 03:29:26;;;;;;;13.50;8.02;;;;;;;16.96;66.86;95291.94;5133664;27;20092;-80
2023/06/30 03:31:51;;;;;;;14.35;8.55;;;;;;;16.90;67.02;95309.25;5133850;27;20023;-80
2023/06/30 03:34:17;;;;;;;20.25;8.65;;;;;;;16.81;66.87;95295.03;5133567;27;20110;-80
2023/06/30 03:36:42;;;;;;;13.50;7.80;;;;;;;16.73;66.83;95293.09;5121806;27;20520;-80
2023/06/30 03:39:07;;;;;;;12.80;8.40;;;;;;;16.70;67.24;95317.84;5115019;27;20031;-80
2023/06/30 03:41:33;;;;;;;17.15;8.77;;;;;;;16.76;67.48;95323.84;5115014;27;20034;-80
2023/06/30 03:43:58;;;;;;;13.63;9.18;;;;;;;16.78;66.56;95297.53;5133550;27;20023;-79
2023/06/30 03:46:24;;;;;;;13.93;8.80;;;;;;;16.93;66.38;95319.34;5114638;27;20118;-80
2023/06/30 03:48:50;;;;;;;17.55;9.40;;;;;;;16.89;65.99;95304.19;5125823;27;20582;-80
2023/06/30 03:51:15;;;;;;;20.67;9.13;;;;;;;16.88;66.45;95294.56;5132918;27;20134;-79
2023/06/30 03:53:41;;;;;;;18.13;9.73;;;;;;;17.07;66.49;95326.47;5133551;27;20036;-80
2023/06/30 03:56:07;;;;;;;22.42;9.48;;;;;;;17.01;66.07;95303.63;5124743;27;20031;-80
2023/06/30 03:58:33;;;;;;;16.17;9.82;;;;;;;17.03;65.91;95296.03;5124065;27;20111;-80
2023/06/30 04:00:58;;;;;;;16.52;9.32;;;;;;;17.06;65.67;95298.91;5123096;27;20031;-80
2023/06/30 04:03:24;;;;;;;15.18;9.55;;;;;;;17.19;65.25;95313.25;5116528;27;20088;-80
2023/06/30 04:05:50;;;;;;;16.30;9.38;;;;;;;17.36;64.92;95326.72;5132962;27;20039;-80
2023/06/30 04:08:15;;;;;;;24.35;9.93;;;;;;;17.35;64.89;95323.25;5133042;27;20083;-80
2023/06/30 04:10:41;;;;;;;16.83;8.93;;;;;;;17.21;64.86;95305.72;5133158;27;20032;-80
2023/06/30 04:13:07;;;;;;;15.25;8.65;;;;;;;17.14;65.12;95321.47;5116162;27;20042;-80
2023/06/30 04:15:32;;;;;;;19.55;9.75;;;;;;;17.12;65.91;95339.72;5113634;27;20054;-80
2023/06/30 04:17:58;;;;;;;16.15;9.15;;;;;;;16.72;66.61;95290.72;5113844;27;20028;-80
2023/06/30 04:20:23;;;;;;;17.83;9.05;;;;;;;16.74;67.43;95342.09;5110611;28;20482;-80
2023/06/30 04:22:48;;;;;;;15.25;9.95;;;;;;;16.68;67.85;95333.41;5110517;28;20020;-80
2023/06/30 04:25:14;;;;;;;16.30;10.07;;;;;;;16.80;67.13;95338.19;5126641;27;20034;-80
2023/06/30 04:27:40;;;;;;;18.88;11.32;;;;;;;16.67;66.87;95306.94;5139016;27;20122;-80
2023/06/30 04:30:07;;;;;;;15.80;10.13;;;;;;;16.90;66.77;95330.66;5122522;27;20081;-80
2023/06/30 04:32:32;;;;;;;15.70;10.43;;;;;;;17.17;66.03;95339.56;5118717;27;20031;-80
2023/06/30 04:34:58;;;;;;;17.48;9.95;;;;;;;16.95;65.83;95284.97;5128759;27;20135;-79
2023/06/30 04:37:24;;;;;;;13.57;10.25;;;;;;;16.91;66.07;95269.84;5108097;27;20034;-80
2023/06/30 04:39:50;;;;;;;20.48;10.35;;;;;;;17.34;65.83;95320.88;5119924;27;20465;-80
2023/06/30 04:42:16;;;;;;;16.52;9.55;;;;;;;17.41;65.63;95325.75;5139696;27;20026;-80
2023/06/30 04:44:41;;;;;;;16.38;10.10;;;;;;;17.29;65.45;95307.63;5123428;27;20458;-80
2023/06/30 04:47:07;;;;;;;19.90;10.57;;;;;;;17.48;65.28;95321.53;5111700;27;20459;-80
2023/06/30 04:49:32;;;;;;;14.80;10.82;;;;;;;17.28;65.34;95282.72;5131347;27;20062;-79
2023/06/30 04:51:58;;;;;;;24.20;11.55;;;;;;;17.50;65.37;95313.97;5129097;27;20023;-80
2023/06/30 04:54:23;;;;;;;21.55;11.18;;;;;;;17.53;65.27;95310.66;5121689;27;20508;-80
2023/06/30 04:56:49;;;;;;;17.65;11.05;;;;;;;17.43;65.16;95302.13;5127638;27;20100;-79
2023/06/30 04:59:15;;;;;;;20.45;11.02;;;;;;;17.42;65.06;95297.84;5129645;27;20031;-82
2023/06/30 05:01:40;;;;;;;17.60;11.23;;;;;;;17.23;65.10;95258.75;5118050;27;20055;-82
2023/06/30 05:04:08;;;;;;;18.00;12.05;;;;;;;17.31;65.29;95292.81;5118612;27;20066;-80
2023/06/30 05:06:34;;;;;;;16.17;12.30;;;;;;;17.42;65.12;95284.44;5107226;27;20549;-80
2023/06/30 05:09:00;;;;;;;17.48;12.50;;;;;;;17.35;65.13;95292.97;5121846;27;20070;-79
2023/06/30 05:11:25;;;;;;;21.45;12.48;;;;;;;17.54;64.94;95298.06;5121723;27;20059;-80
2023/06/30 05:13:50;;;;;;;17.88;13.10;;;;;;;17.62;65.13;95322.19;5106623;27;20106;-79
2023/06/30 05:16:17;;;;;;;21.08;12.82;;;;;;;17.41;65.28;95275.63;5102357;27;20126;-80
2023/06/30 05:18:43;;;;;;;17.48;12.50;;;;;;;17.65;64.83;95304.69;5108510;27;20023;-78
2023/06/30 05:21:11;;;;;;;19.80;11.70;;;;;;;17.58;64.66;95299.78;5116688;27;20027;-78
2023/06/30 05:23:36;;;;;;;20.00;11.45;;;;;;;17.73;64.26;95307.38;5109470;27;20488;-79
2023/06/30 05:26:02;;;;;;;12.25;10.07;;;;;;;17.47;64.04;95273.59;5087081;27;20030;-78
2023/06/30 05:28:27;;;;;;;14.18;10.52;;;;;;;17.63;63.81;95331.03;5092524;27;20034;-78
2023/06/30 05:30:52;;;;;;;15.43;9.85;;;;;;;17.51;62.74;95277.22;5106030;27;20469;-79
2023/06/30 05:33:18;;;;;;;12.70;10.27;;;;;;;17.66;63.42;95331.22;5093409;27;20118;-79
2023/06/30 05:35:43;;;;;;;18.05;10.85;;;;;;;17.66;63.34;95304.38;5100525;27;20097;-80
2023/06/30 05:38:09;;;;;;;22.80;11.15;;;;;;;17.53;63.75;95297.25;5106982;27;20027;-79
2023/06/30 05:40:34;;;;;;;21.65;9.50;;;;;;;17.73;62.45;95310.06;5114059;27;20031;-79
2023/06/30 05:42:59;;;;;;;15.70;9.95;;;;;;;17.96;62.38;95337.53;5098908;27;20027;-80
2023/06/30 05:45:25;;;;;;;17.80;10.48;;;;;;;17.78;62.27;95321.75;5101882;27;20042;-80
2023/06/30 05:47:51;;;;;;;14.27;9.23;;;;;;;17.95;62.04;95337.84;5099859;27;20031;-81
2023/06/30 05:50:17;;;;;;;14.88;10.20;;;;;;;18.01;62.05;95337.38;5102807;27;20031;-80
2023/06/30 05:52:42;;;;;;;22.98;11.43;;;;;;;17.77;62.72;95317.50;5097214;27;20596;-80
2023/06/30 05:55:08;;;;;;;15.73;11.45;;;;;;;17.96;62.91;95350.94;5102433;27;20069;-79
2023/06/30 05:57:33;;;;;;;15.90;10.57;;;;;;;17.81;62.39;95303.13;5106650;27;20058;-79
2023/06/30 05:59:59;;;;;;;18.20;11.68;;;;;;;18.02;62.16;95314.00;5080961;27;20038;-80
2023/06/30 06:02:24;;;;;;;23.95;11.98;;;;;;;17.55;62.41;95232.56;5082545;27;20027;-79
2023/06/30 06:04:52;;;;;;;17.67;10.93;;;;;;;17.80;62.31;95295.41;5075718;27;20148;-79
2023/06/30 06:07:18;;;;;;;16.48;11.05;;;;;;;18.04;61.79;95301.06;5073706;27;20667;-79
2023/06/30 06:09:43;;;;;;;15.55;9.90;;;;;;;18.36;61.55;95348.09;5079137;27;20031;-79
2023/06/30 06:12:09;;;;;;;15.40;10.90;;;;;;;17.93;61.48;95275.66;5074708;27;20042;-79
2023/06/30 06:14:34;;;;;;;20.35;11.23;;;;;;;18.37;61.88;95347.00;5094521;27;20581;-78
2023/06/30 06:17:00;;;;;;;24.27;9.88;;;;;;;18.00;61.74;95298.22;5069279;27;20031;-81
2023/06/30 06:19:25;;;;;;;14.48;10.05;;;;;;;18.23;62.23;95339.13;5094766;27;20046;-78
2023/06/30 06:21:50;;;;;;;15.23;9.73;;;;;;;18.07;61.83;95317.34;5080927;27;20030;-79
2023/06/30 06:24:17;;;;;;;23.15;10.75;;;;;;;18.32;62.02;95345.25;5096403;27;20031;-79
2023/06/30 06:26:43;;;;;;;19.95;10.30;;;;;;;18.25;61.73;95315.41;5095956;27;20053;-80
2023/06/30 06:29:09;;;;;;;16.52;10.30;;;;;;;18.19;61.70;95295.22;5111321;27;20027;-81
2023/06/30 06:31:34;;;;;;;16.08;9.48;;;;;;;18.18;62.02;95290.16;5091447;27;20417;-81
2023/06/30 06:34:00;;;;;;;35.08;12.82;;;;;;;18.54;61.99;95322.00;5085319;27;20543;-79
2023/06/30 06:36:25;;;;;;;17.73;9.25;;;;;;;18.48;61.91;95318.69;5097118;27;21225;-81
2023/06/30 06:38:50;;;;;;;21.08;10.38;;;;;;;18.36;61.57;95305.94;5095225;27;20494;-79
2023/06/30 06:41:16;;;;;;;18.92;10.20;;;;;;;18.34;61.12;95312.72;5097187;27;20118;-79
2023/06/30 06:43:42;;;;;;;20.48;9.93;;;;;;;18.30;61.06;95277.69;5098977;27;20280;-79
2023/06/30 06:46:08;;;;;;;13.60;10.18;;;;;;;18.53;60.91;95315.84;5083581;28;20134;-79
2023/06/30 06:48:33;;;;;;;19.30;9.93;;;;;;;18.45;61.25;95319.34;5094400;27;20058;-79
2023/06/30 06:51:02;;;;;;;13.02;9.75;;;;;;;18.16;61.24;95258.25;5092659;27;20461;-80
2023/06/30 06:53:28;;;;;;;17.90;9.85;;;;;;;18.70;61.26;95342.66;5102937;27;20354;-81
2023/06/30 06:55:55;;;;;;;19.77;10.15;;;;;;;18.72;60.76;95320.88;5072814;27;20118;-82
2023/06/30 06:58:21;;;;;;;13.73;8.60;;;;;;;18.68;60.42;95309.19;5114130;27;20142;-82
2023/06/30 07:00:48;;;;;;;16.67;10.80;;;;;;;18.68;60.72;95312.66;5100872;27;20083;-80
2023/06/30 07:03:14;;;;;;;24.00;10.02;;;;;;;18.89;60.16;95318.91;5091845;27;20618;-78
2023/06/30 07:05:40;;;;;;;16.83;9.75;;;;;;;19.12;59.97;95327.50;5115787;27;20129;-78
2023/06/30 07:08:07;;;;;;;17.52;9.50;;;;;;;19.11;59.87;95311.69;5116839;27;20051;-78
2023/06/30 07:10:33;;;;;;;17.67;9.77;;;;;;;19.03;60.12;95328.66;5132681;27;20038;-78
2023/06/30 07:12:59;;;;;;;15.90;9.75;;;;;;;19.08;59.88;95329.25;5098950;27;20034;-78
2023/06/30 07:15:25;;;;;;;16.77;9.90;;;;;;;19.28;59.74;95328.53;5102893;27;20062;-79
2023/06/30 07:17:50;;;;;;;18.20;9.75;;;;;;;19.25;58.91;95307.66;5081451;27;20047;-78
2023/06/30 07:20:16;;;;;;;16.50;9.43;;;;;;;19.37;58.99;95316.94;5084419;27;20707;-78
2023/06/30 07:22:41;;;;;;;17.95;9.32;;;;;;;19.11;59.47;95274.84;5081360;27;20035;-77
2023/06/30 07:25:07;;;;;;;18.55;10.13;;;;;;;19.06;59.13;95285.00;5087069;27;20063;-77
2023/06/30 07:27:36;;;;;;;16.45;9.93;;;;;;;19.15;59.07;95291.09;5091209;27;20095;-78
2023/06/30 07:30:01;;;;;;;19.23;9.32;;;;;;;19.22;58.72;95286.78;5112301;27;20062;-81
2023/06/30 07:32:27;;;;;;;19.90;9.75;;;;;;;19.28;58.60;95322.38;5090391;27;20199;-78
2023/06/30 07:34:52;;;;;;;20.92;9.30;;;;;;;19.18;57.55;95282.41;5117342;27;20442;-78
2023/06/30 07:37:18;;;;;;;10.77;7.90;;;;;;;19.50;57.47;95316.72;5100519;27;20038;-78
2023/06/30 07:39:43;;;;;;;19.10;9.40;;;;;;;19.47;57.79;95311.19;5084597;27;20075;-78
2023/06/30 07:42:09;;;;;;;12.93;7.43;;;;;;;19.28;57.81;95277.44;5107901;27;20107;-78
2023/06/30 07:44:34;;;;;;;12.05;8.00;;;;;;;19.42;56.96;95297.94;5097121;27;20667;-78
2023/06/30 07:47:00;;;;;;;17.83;9.15;;;;;;;19.44;56.87;95279.56;5111204;27;20106;-78
2023/06/30 07:49:26;;;;;;;13.73;8.07;;;;;;;19.55;56.44;95296.91;5098480;27;20067;-78
2023/06/30 07:51:51;;;;;;;10.40;7.05;;;;;;;19.36;56.82;95258.91;5115637;27;20110;-78
2023/06/30 07:54:17;;;;;;;10.80;8.00;;;;;;;19.71;56.94;95310.56;5112343;27;20030;-78
2023/06/30 07:56:42;;;;;;;13.98;8.82;;;;;;;19.80;57.23;95306.72;5115615;27;20133;-78
2023/06/30 07:59:08;;;;;;;10.70;7.40;;;;;;;19.60;56.31;95285.97;5097522;27;20092;-78
2023/06/30 08:01:33;;;;;;;17.23;7.82;;;;;;;19.84;56.71;95299.53;5095824;27;20031;-78
2023/06/30 08:03:58;;;;;;;15.85;8.98;;;;;;;19.85;56.71;95301.13;5114095;27;20110;-77
2023/06/30 08:06:25;;;;;;;13.35;7.05;;;;;;;19.70;55.10;95252.50;5097532;27;20027;-78
2023/06/30 08:08:50;;;;;;;16.50;6.32;;;;;;;19.89;54.02;95283.22;5113787;27;20224;-78
2023/06/30 08:11:15;;;;;;;6.95;5.57;;;;;;;19.74;53.35;95256.13;5111556;27;20050;-77
2023/06/30 08:13:41;;;;;;;10.63;5.43;;;;;;;19.93;52.94;95259.91;5107875;27;20550;-78
2023/06/30 08:16:06;;;;;;;6.05;4.18;;;;;;;19.86;52.82;95256.94;5100662;27;20157;-78
2023/06/30 08:18:32;;;;;;;7.82;5.13;;;;;;;19.98;52.91;95269.69;5098696;27;20351;-78
2023/06/30 08:20:57;;;;;;;10.63;5.30;;;;;;;20.05;52.67;95261.84;5099822;27;20042;-79
2023/06/30 08:23:24;;;;;;;10.35;5.55;;;;;;;20.21;52.51;95272.81;5119391;27;20034;-82
2023/06/30 08:25:51;;;;;;;7.18;4.00;;;;;;;20.28;50.31;95273.03;5107555;27;20425;-79
2023/06/30 08:28:16;;;;;;;6.80;3.38;;;;;;;20.27;49.45;95261.47;5111133;27;20127;-80
2023/06/30 08:30:41;;;;;;;5.97;3.10;;;;;;;20.32;49.28;95257.78;5111783;27;20027;-79
2023/06/30 08:33:07;;;;;;;5.30;3.00;;;;;;;19.98;49.25;95200.50;5099894;27;20259;-80
2023/06/30 08:35:32;;;;;;;9.68;3.42;;;;;;;20.57;48.55;95272.13;5102063;27;20450;-81
2023/06/30 08:37:58;;;;;;;7.10;3.53;;;;;;;20.56;48.67;95262.47;5099940;27;20030;-79
2023/06/30 08:40:29;;;;;;;14.98;4.13;;;;;;;20.74;49.25;95256.56;5098376;27;20031;-80
2023/06/30 08:43:04;;;;;;;9.63;3.78;;;;;;;20.44;49.64;95217.44;5102816;27;20517;-79
2023/06/30 08:45:30;;;;;;;6.25;3.75;;;;;;;20.63;49.07;95228.47;5115580;27;20187;-79
2023/06/30 08:48:04;;;;;;;11.73;4.10;;;;;;;20.83;48.69;95253.72;5111530;27;20134;-79
2023/06/30 08:50:31;;;;;;;11.82;4.05;;;;;;;20.69;48.95;95224.41;5092924;27;20039;-80
2023/06/30 08:52:58;;;;;;;6.47;4.00;;;;;;;20.82;49.22;95235.22;5099487;27;20023;-79
2023/06/30 08:55:24;;;;;;;7.38;4.65;;;;;;;20.90;49.75;95215.47;5095075;27;20028;-80
2023/06/30 08:57:51;;;;;;;10.38;4.00;;;;;;;20.88;49.85;95198.81;5093473;27;20056;-79
2023/06/30 09:00:17;;;;;;;7.82;4.10;;;;;;;21.03;47.46;95235.88;5111842;27;20933;-80
2023/06/30 09:02:44;;;;;;;11.93;4.22;;;;;;;20.89;48.55;95224.66;5126765;27;20031;-79
2023/06/30 09:05:10;;;;;;;9.05;3.42;;;;;;;20.93;47.55;95204.78;5096729;27;20033;-80
2023/06/30 09:07:44;;;;;;;8.95;3.55;;;;;;;20.77;47.88;95179.63;5110739;27;20717;-79
2023/06/30 09:10:09;;;;;;;12.68;4.50;;;;;;;21.01;47.19;95217.34;5140083;27;20031;-80
2023/06/30 09:12:38;;;;;;;10.95;4.63;;;;;;;20.94;47.60;95208.25;5111096;27;20087;-80
2023/06/30 09:15:06;;;;;;;5.07;3.28;;;;;;;21.10;47.48;95222.63;5106247;27;20039;-79
2023/06/30 09:17:33;;;;;;;6.25;3.95;;;;;;;21.37;47.15;95246.19;5114432;27;20507;-80
2023/06/30 09:19:59;;;;;;;8.32;4.03;;;;;;;21.36;46.91;95225.00;5118493;27;20035;-79
2023/06/30 09:22:25;;;;;;;6.28;3.42;;;;;;;21.46;45.79;95227.19;5099477;27;20665;-81
2023/06/30 09:24:50;;;;;;;4.93;3.55;;;;;;;21.44;45.83;95213.25;5120210;27;20488;-79
2023/06/30 09:27:19;;;;;;;8.98;4.72;;;;;;;21.37;46.24;95227.31;5101514;27;20031;-79
2023/06/30 09:29:54;;;;;;;6.90;4.25;;;;;;;21.28;46.37;95218.59;5119104;27;20030;-79
2023/06/30 09:32:31;;;;;;;8.18;4.10;;;;;;;21.45;47.12;95212.91;5103570;27;20761;-79
2023/06/30 09:34:56;;;;;;;6.63;3.78;;;;;;;21.72;47.38;95227.59;5106550;27;20023;-79
2023/06/30 09:37:22;;;;;;;5.18;4.05;;;;;;;21.84;47.03;95224.03;5120083;27;20076;-80
2023/06/30 09:39:51;;;;;;;7.15;4.40;;;;;;;21.45;46.20;95185.94;5092286;27;20050;-79
2023/06/30 09:42:18;;;;;;;11.50;4.18;;;;;;;21.52;47.30;95172.66;5100563;27;20506;-79
2023/06/30 09:44:44;;;;;;;11.25;4.40;;;;;;;21.72;46.83;95197.09;5110937;27;20034;-79
2023/06/30 09:47:12;;;;;;;15.25;4.65;;;;;;;22.40;45.53;95218.63;5121517;27;20034;-79
2023/06/30 09:49:39;;;;;;;6.35;3.63;;;;;;;23.49;43.26;95222.41;5115861;27;20088;-79
2023/06/30 09:52:05;;;;;;;6.60;3.67;;;;;;;24.28;40.90;95199.25;5114279;27;20422;-80
2023/06/30 09:54:33;;;;;;;9.80;3.95;;;;;;;25.16;40.31;95197.22;5118405;27;20583;-80
2023/06/30 09:57:08;;;;;;;5.68;4.43;;;;;;;26.21;37.71;95218.00;5101098;27;20509;-80
2023/06/30 09:59:33;;;;;;;9.48;3.47;;;;;;;26.84;36.11;95187.91;5109197;27;20031;-79
2023/06/30 10:01:59;;;;;;;8.25;3.90;;;;;;;27.48;34.51;95207.41;5141217;27;20300;-80
2023/06/30 10:04:27;;;;;;;8.85;3.88;;;;;;;28.46;33.25;95204.72;5111752;27;20158;-80
2023/06/30 10:06:54;;;;;;;7.22;3.75;;;;;;;28.89;31.39;95209.09;5106266;27;20027;-80
2023/06/30 10:09:24;;;;;;;7.28;3.63;;;;;;;28.41;32.42;95192.25;5116069;27;20045;-80
2023/06/30 10:11:55;;;;;;;6.63;4.05;;;;;;;28.16;31.50;95131.44;5108118;27;20118;-80
2023/06/30 10:14:30;;;;;;;5.40;3.83;;;;;;;29.21;31.09;95197.38;5109050;27;20031;-80
2023/06/30 10:17:03;;;;;;;8.18;3.92;;;;;;;29.60;30.09;95191.88;5114797;27;20872;-79
2023/06/30 10:19:29;;;;;;;9.60;3.42;;;;;;;29.34;30.17;95171.22;5109867;27;20046;-80
2023/06/30 10:21:56;;;;;;;6.40;3.83;;;;;;;30.02;30.58;95178.06;5137604;27;20042;-80
2023/06/30 10:24:37;;;;;;;5.00;3.10;;;;;;;30.58;29.41;95149.59;5107631;27;20061;-79
2023/06/30 10:27:06;;;;;;;12.20;3.63;;;;;;;30.26;29.99;95121.66;5117127;27;20038;-80
2023/06/30 10:29:31;;;;;;;6.22;3.40;;;;;;;30.24;29.76;95145.88;5115130;27;20038;-78
2023/06/30 10:31:58;;;;;;;5.95;3.38;;;;;;;30.84;29.62;95133.75;5108117;27;20028;-79
2023/06/30 10:34:25;;;;;;;7.88;4.07;;;;;;;31.42;29.15;95157.47;5109024;27;20035;-80
2023/06/30 10:36:50;;;;;;;5.00;2.90;;;;;;;31.56;29.68;95162.03;5102072;27;20049;-79
2023/06/30 10:39:17;;;;;;;4.55;3.08;;;;;;;31.57;29.39;95106.81;5142223;27;20035;-80
2023/06/30 10:41:49;;;;;;;7.28;3.05;;;;;;;31.97;28.86;95153.72;5129536;27;20477;-79
2023/06/30 10:44:18;;;;;;;7.45;3.40;;;;;;;31.73;28.69;95093.31;5113088;27;20023;-79
2023/06/30 10:46:55;;;;;;;9.38;3.17;;;;;;;31.80;27.58;95153.53;5118408;27;20045;-80
2023/06/30 10:49:22;;;;;;;7.53;3.45;;;;;;;32.22;28.16;95142.44;5122505;27;20083;-80
2023/06/30 10:51:49;;;;;;;6.55;3.35;;;;;;;31.85;27.81;95135.06;5134092;27;20284;-79
2023/06/30 10:54:23;;;;;;;9.00;3.42;;;;;;;31.96;28.15;95141.22;5142425;27;20523;-79
2023/06/30 10:56:49;;;;;;;4.55;3.40;;;;;;;32.19;28.54;95116.63;5131739;27;20473;-80
2023/06/30 10:59:23;;;;;;;5.53;2.92;;;;;;;32.46;29.17;95127.59;5144337;27;20030;-80
2023/06/30 11:02:11;;;;;;;6.25;3.20;;;;;;;32.63;28.12;95134.78;5138120;27;20118;-79
2023/06/30 11:04:37;;;;;;;7.30;3.70;;;;;;;32.29;29.44;95110.19;5128677;27;20074;-80
2023/06/30 11:07:07;;;;;;;7.38;3.33;;;;;;;32.40;28.58;95105.31;5120071;27;20039;-80
2023/06/30 11:09:48;;;;;;;4.90;3.38;;;;;;;32.83;28.01;95121.91;5127282;27;20038;-79
2023/06/30 11:12:18;;;;;;;;;;;;;;;32.99;28.76;95125.97;5125301;27;20461;-80
2023/06/30 11:15:03;;;;;;;4.70;2.65;;;;;;;33.01;27.47;95124.34;5137885;27;19983;-80
2023/06/30 11:18:06;;;;;;;5.75;3.30;;;;;;;33.01;28.31;95105.13;5114550;28;20118;-80
2023/06/30 11:20:32;;;;;;;8.65;4.00;;;;;;;33.03;26.78;95110.22;5088571;27;20484;-80
2023/06/30 11:23:00;;;;;;;8.68;3.78;;;;;;;32.91;27.03;95106.09;5127284;27;20031;-80
2023/06/30 11:25:26;;;;;;;7.65;4.13;;;;;;;31.82;27.87;95090.81;5125948;27;20459;-80